Marble Rock, Iowa
Current Conditions -  °F | °C
As of 8:35 PM on Thursday 20 Nov 2014 (Local Time) from KCCY Reporting Station
Clear Clear  
Wind Chill: -1°   Ceiling: Unl
Heat Index:   Visibility: 10mi
Dew Point:   Wind: 6mph
Humidity: 79%   Direction: 290°WNW
Pressure: 30.25"   Gusts: NA
Location:  42.97°N, 92.87°W
Report Text: KCCY 210235Z AUTO 29005KT 10SM CLR M13/M16 A3025 RMK AO2
Loading
Personal Weather Stations






























Interactive Weather Map New forecast layout! Learn more

10-Day Weather Forecast

Advertisements
Track Severe Weather on mobile